Time;durP1;ratioP1;P1;durP2;ratioP2;P2;SDS_P1;SDS_P2;PMS_P1;PMS_P2;Temp;Humidity;BMP_temperature;BMP_pressure;BME280_temperature;BME280_humidity;BME280_pressure;Samples;Min_cycle;Max_cycle;Signal;HPM_P1;HPM_P2
2022/05/28 00:00:39;;;;;;;11.20;4.50;;;;;;;18.67;72.29;94422.34;5038780;28;20232;-86
2022/05/28 00:03:06;;;;;;;11.98;6.03;;;;;;;18.81;72.20;94416.91;5023442;28;20200;-86
2022/05/28 00:05:35;;;;;;;8.73;4.60;;;;;;;18.80;72.35;94420.84;5035770;28;20200;-86
2022/05/28 00:08:02;;;;;;;7.25;4.50;;;;;;;18.78;72.38;94420.44;5023099;28;20208;-85
2022/05/28 00:10:29;;;;;;;9.75;4.90;;;;;;;18.81;72.16;94422.41;5022179;28;20201;-85
2022/05/28 00:12:58;;;;;;;7.43;4.38;;;;;;;18.87;71.97;94415.38;5035641;28;20215;-85
2022/05/28 00:15:26;;;;;;;7.63;5.68;;;;;;;18.85;71.94;94412.25;5038508;28;20237;-84
2022/05/28 00:17:52;;;;;;;9.70;5.72;;;;;;;18.79;72.07;94408.28;5029172;28;20208;-85
2022/05/28 00:20:19;;;;;;;9.70;4.85;;;;;;;18.83;71.51;94409.09;5032605;28;20232;-85
2022/05/28 00:22:46;;;;;;;9.02;5.75;;;;;;;18.79;71.70;94408.28;5027183;28;20208;-85
2022/05/28 00:25:15;;;;;;;10.60;4.50;;;;;;;18.81;71.46;94414.19;5023800;28;20228;-85
2022/05/28 00:27:42;;;;;;;6.13;4.47;;;;;;;18.79;70.98;94402.78;5031189;28;20221;-85
2022/05/28 00:30:14;;;;;;;10.02;4.88;;;;;;;18.77;71.70;94399.63;5031049;28;20229;-84
2022/05/28 00:32:41;;;;;;;11.18;4.45;;;;;;;18.61;72.28;94401.91;5026302;28;20196;-86
2022/05/28 00:35:12;;;;;;;7.68;5.32;;;;;;;18.64;71.87;94395.66;5023476;28;20221;-85
2022/05/28 00:37:39;;;;;;;10.65;4.68;;;;;;;18.65;72.14;94394.50;5037388;28;20200;-85
2022/05/28 00:40:10;;;;;;;6.82;4.20;;;;;;;18.63;72.28;94388.59;5036456;28;20212;-85
2022/05/28 00:42:37;;;;;;;13.30;4.72;;;;;;;18.63;72.52;94372.13;5023365;28;20194;-84
2022/05/28 00:45:05;;;;;;;8.10;4.40;;;;;;;18.48;73.23;94376.72;5047225;28;20219;-85
2022/05/28 00:47:34;;;;;;;9.20;5.43;;;;;;;18.45;73.06;94372.78;5035807;28;20240;-85
2022/05/28 00:50:02;;;;;;;10.52;4.82;;;;;;;18.48;72.98;94365.75;5024172;28;20200;-85
2022/05/28 00:52:29;;;;;;;12.57;5.32;;;;;;;18.49;72.80;94367.34;5037029;28;20212;-86
2022/05/28 00:54:57;;;;;;;6.70;3.95;;;;;;;18.50;72.64;94362.63;5021859;28;20312;-85
2022/05/28 00:57:25;;;;;;;9.88;4.50;;;;;;;18.54;72.33;94358.75;5035848;28;20211;-86
2022/05/28 00:59:52;;;;;;;9.10;5.63;;;;;;;18.55;72.11;94359.53;5036206;28;20227;-86
2022/05/28 01:02:23;;;;;;;10.68;4.55;;;;;;;18.47;72.72;94345.75;5034514;28;20256;-85
2022/05/28 01:04:58;;;;;;;6.80;4.57;;;;;;;18.45;72.74;94353.59;5024943;28;20266;-85
2022/05/28 01:07:37;;;;;;;7.55;4.65;;;;;;;18.35;73.22;94370.78;5035790;28;20223;-86
2022/05/28 01:10:14;;;;;;;9.77;4.63;;;;;;;17.87;74.61;94391.22;5034331;28;20630;-87
2022/05/28 01:12:48;;;;;;;6.93;4.80;;;;;;;17.48;75.90;94402.59;5020315;28;20200;-82
2022/05/28 01:15:21;;;;;;;9.38;4.15;;;;;;;17.35;76.99;94421.25;5019633;28;20587;-80
2022/05/28 01:17:51;;;;;;;6.82;4.05;;;;;;;17.40;77.07;94409.16;5026375;28;20200;-84
2022/05/28 01:20:23;;;;;;;11.20;4.60;;;;;;;17.55;76.69;94408.13;5030051;28;20197;-85
2022/05/28 01:23:11;;;;;;;8.40;4.30;;;;;;;17.69;76.08;94418.47;5034569;28;20224;-86
2022/05/28 01:25:51;;;;;;;7.72;4.05;;;;;;;17.55;76.47;94446.47;5030426;28;20677;-86
2022/05/28 01:28:23;;;;;;;4.32;3.58;;;;;;;17.35;76.57;94491.66;5028446;28;20231;-79
2022/05/28 01:30:51;;;;;;;4.82;3.53;;;;;;;17.43;75.75;94479.59;5026217;28;20229;-86
2022/05/28 01:33:20;;;;;;;6.05;3.85;;;;;;;17.52;75.22;94468.34;5027918;28;20266;-86
2022/05/28 01:35:47;;;;;;;10.35;4.07;;;;;;;17.62;74.94;94473.94;5022813;28;20204;-84
2022/05/28 01:38:18;;;;;;;7.88;4.32;;;;;;;17.62;75.53;94479.44;5035214;28;20292;-86
2022/05/28 01:40:46;;;;;;;7.35;3.40;;;;;;;17.66;75.29;94463.81;5034972;28;20236;-85
2022/05/28 01:43:17;;;;;;;6.03;3.83;;;;;;;17.65;74.89;94467.72;5035129;28;20204;-85
2022/05/28 01:45:47;;;;;;;11.48;3.90;;;;;;;17.69;74.68;94457.59;5035089;28;20239;-86
2022/05/28 01:48:15;;;;;;;9.15;4.00;;;;;;;17.79;74.24;94447.09;5035373;28;20214;-85
2022/05/28 01:50:46;;;;;;;8.00;3.75;;;;;;;17.91;73.32;94453.09;5034243;28;20207;-87
2022/05/28 01:54:07;;;;;;;10.90;4.30;;;;;;;17.98;72.95;94452.38;5015445;28;20572;-88
2022/05/28 01:56:06;;;;;;;9.40;3.70;;;;;;;18.03;72.71;94443.81;5026038;28;20287;-84
2022/05/28 01:58:33;;;;;;;5.10;3.67;;;;;;;18.03;72.68;94438.34;5020972;28;20212;-86
2022/05/28 02:01:02;;;;;;;7.35;3.63;;;;;;;18.14;72.31;94441.16;5016680;28;20237;-83
2022/05/28 02:03:33;;;;;;;10.25;3.72;;;;;;;18.24;71.92;94435.75;5021940;28;20205;-84
2022/05/28 02:06:00;;;;;;;9.45;3.88;;;;;;;18.22;72.07;94453.75;5015769;28;20607;-86
2022/05/28 02:08:29;;;;;;;5.93;3.22;;;;;;;18.22;71.96;94451.78;5022227;28;20224;-85
2022/05/28 02:11:05;;;;;;;9.15;3.78;;;;;;;18.24;71.76;94454.16;5018660;28;20211;-85
2022/05/28 02:13:45;;;;;;;10.32;3.95;;;;;;;18.42;70.88;94447.63;5020112;28;20193;-88
2022/05/28 02:16:18;;;;;;;5.78;4.00;;;;;;;18.44;70.10;94442.56;5033708;28;20207;-83
2022/05/28 02:18:50;;;;;;;7.65;3.13;;;;;;;18.61;68.03;94432.09;5020204;28;20371;-81
2022/05/28 02:21:23;;;;;;;10.02;4.13;;;;;;;18.56;68.84;94432.44;5032759;28;20212;-82
2022/05/28 02:23:55;;;;;;;7.82;3.42;;;;;;;18.57;68.34;94443.03;5019575;28;20691;-79
2022/05/28 02:26:28;;;;;;;7.38;3.50;;;;;;;18.64;67.42;94440.34;5021309;28;20228;-82
2022/05/28 02:28:55;;;;;;;4.78;3.10;;;;;;;18.71;66.58;94445.09;5031198;28;20224;-82
2022/05/28 02:31:28;;;;;;;6.57;3.10;;;;;;;18.70;66.50;94440.78;5020528;28;20232;-81
2022/05/28 02:33:55;;;;;;;7.82;3.72;;;;;;;18.70;66.19;94438.81;5026469;28;20243;-84
2022/05/28 02:36:23;;;;;;;6.35;3.05;;;;;;;18.64;66.59;94439.56;5014744;28;20607;-83
2022/05/28 02:38:50;;;;;;;7.90;3.35;;;;;;;18.61;66.06;94440.31;5034715;28;20208;-84
2022/05/28 02:41:17;;;;;;;7.63;2.88;;;;;;;18.63;66.25;94443.47;5033615;28;20290;-83
2022/05/28 02:43:44;;;;;;;8.25;2.92;;;;;;;18.59;66.30;94448.94;5019896;28;20203;-84
2022/05/28 02:46:11;;;;;;;5.35;2.67;;;;;;;18.57;66.44;94439.50;5032091;28;20243;-85
2022/05/28 02:48:40;;;;;;;4.00;2.55;;;;;;;18.68;65.25;94423.91;5021258;28;20258;-84
2022/05/28 02:51:10;;;;;;;6.50;3.85;;;;;;;18.63;65.92;94416.03;5031835;28;20215;-84
2022/05/28 02:53:37;;;;;;;7.68;2.88;;;;;;;18.76;65.48;94420.03;5021887;28;20220;-84
2022/05/28 02:56:05;;;;;;;13.23;2.97;;;;;;;18.72;66.11;94411.75;5020097;28;20320;-82
2022/05/28 02:58:32;;;;;;;5.22;3.15;;;;;;;18.80;65.81;94418.09;5023937;28;20217;-84
2022/05/28 03:00:59;;;;;;;9.40;3.60;;;;;;;18.78;65.89;94423.16;5014904;28;20603;-85
2022/05/28 03:03:26;;;;;;;10.38;3.88;;;;;;;18.72;65.96;94424.72;5032433;28;20215;-85
2022/05/28 03:05:55;;;;;;;6.75;2.60;;;;;;;18.73;64.84;94426.28;5031215;28;20204;-83
2022/05/28 03:08:22;;;;;;;5.88;3.05;;;;;;;18.82;64.35;94421.25;5031796;28;20204;-86
2022/05/28 03:10:49;;;;;;;5.55;2.70;;;;;;;18.91;64.63;94421.66;5019630;28;20714;-85
2022/05/28 03:13:15;;;;;;;5.20;2.70;;;;;;;19.01;64.35;94418.16;5023602;28;20216;-85
2022/05/28 03:15:42;;;;;;;5.47;2.75;;;;;;;19.14;64.08;94419.41;5029919;28;20209;-85
2022/05/28 03:18:09;;;;;;;5.93;3.10;;;;;;;19.19;64.25;94421.00;5033226;28;20209;-85
2022/05/28 03:20:38;;;;;;;4.75;3.15;;;;;;;19.35;64.80;94424.19;5032560;28;20200;-85
2022/05/28 03:23:07;;;;;;;4.43;3.00;;;;;;;19.33;64.11;94425.75;5021537;28;20236;-86
2022/05/28 03:25:37;;;;;;;7.88;3.20;;;;;;;19.37;63.98;94429.28;5021341;28;20224;-87
2022/05/28 03:28:05;;;;;;;7.70;4.03;;;;;;;19.40;64.50;94434.03;5020812;28;20216;-86
2022/05/28 03:30:31;;;;;;;7.20;2.78;;;;;;;19.25;64.76;94435.94;5031668;28;20272;-86
2022/05/28 03:32:59;;;;;;;9.90;2.90;;;;;;;19.28;64.60;94428.84;5025626;28;20223;-84
2022/05/28 03:35:28;;;;;;;11.43;2.97;;;;;;;19.42;65.06;94428.91;5034478;28;20738;-87
2022/05/28 03:37:56;;;;;;;6.45;2.67;;;;;;;19.34;65.44;94421.81;5035017;28;20203;-87
2022/05/28 03:40:24;;;;;;;6.07;3.50;;;;;;;19.44;65.39;94421.06;5036429;28;20200;-84
2022/05/28 03:42:51;;;;;;;8.23;3.42;;;;;;;19.47;65.54;94421.06;5034169;28;20216;-85
2022/05/28 03:45:18;;;;;;;7.07;3.42;;;;;;;19.35;65.42;94423.41;5035401;28;20607;-84
2022/05/28 03:47:45;;;;;;;8.73;3.85;;;;;;;19.46;64.98;94413.22;5024449;28;20192;-86
2022/05/28 03:50:13;;;;;;;9.13;3.05;;;;;;;19.47;64.78;94409.28;5029625;28;20687;-84
2022/05/28 03:52:42;;;;;;;5.03;3.10;;;;;;;19.49;64.67;94396.00;5033891;28;20208;-88
2022/05/28 03:55:09;;;;;;;6.45;3.30;;;;;;;19.56;64.86;94396.00;5031990;28;20671;-85
2022/05/28 03:57:38;;;;;;;6.00;2.72;;;;;;;19.73;64.36;94389.72;5032779;28;20532;-85
2022/05/28 04:00:07;;;;;;;7.80;2.83;;;;;;;19.94;62.92;94388.19;5026955;28;20196;-86
2022/05/28 04:02:34;;;;;;;5.18;2.78;;;;;;;20.51;61.28;94384.19;5035253;28;20232;-86
2022/05/28 04:05:02;;;;;;;8.18;2.97;;;;;;;20.73;60.32;94384.16;5036958;28;20224;-86
2022/05/28 04:07:28;;;;;;;6.07;3.10;;;;;;;20.81;59.82;94385.69;5022481;28;20225;-87
2022/05/28 04:09:55;;;;;;;6.10;4.00;;;;;;;20.93;59.46;94380.53;5027558;28;20215;-86
2022/05/28 04:12:22;;;;;;;9.02;4.18;;;;;;;20.97;59.35;94385.25;5021447;28;20213;-86
2022/05/28 04:14:51;;;;;;;9.45;3.75;;;;;;;20.78;59.70;94364.47;5019167;28;20247;-88
2022/05/28 04:17:18;;;;;;;9.27;4.30;;;;;;;20.67;59.67;94369.22;5023246;28;20208;-86
2022/05/28 04:19:45;;;;;;;4.95;3.13;;;;;;;20.51;60.68;94373.19;5029684;28;20263;-86
2022/05/28 04:22:12;;;;;;;9.02;3.95;;;;;;;20.42;61.93;94381.09;5036111;28;20614;-88
2022/05/28 04:24:39;;;;;;;10.27;4.00;;;;;;;20.27;61.48;94390.50;5025648;28;20308;-90
2022/05/28 04:27:06;;;;;;;9.15;4.97;;;;;;;19.69;66.81;94419.16;5028526;28;20232;-77
2022/05/28 04:29:33;;;;;;;4.20;3.00;;;;;;;19.23;68.21;94448.47;5024303;28;20208;-77
2022/05/28 04:32:01;;;;;;;6.13;3.33;;;;;;;19.04;68.40;94461.34;5020692;28;20545;-84
2022/05/28 04:34:28;;;;;;;6.43;2.97;;;;;;;18.91;65.69;94443.63;5022690;28;20201;-87
2022/05/28 04:36:55;;;;;;;9.07;3.00;;;;;;;18.95;65.52;94411.50;5029466;28;20205;-85
2022/05/28 04:39:22;;;;;;;6.05;2.85;;;;;;;19.03;64.94;94388.38;5025823;28;20208;-83
2022/05/28 04:41:49;;;;;;;5.20;3.67;;;;;;;19.17;65.42;94380.19;5028476;28;20224;-82
2022/05/28 04:44:15;;;;;;;10.00;3.88;;;;;;;19.14;66.35;94369.97;5035435;28;20869;-85
2022/05/28 04:46:42;;;;;;;6.50;2.80;;;;;;;19.16;66.17;94378.59;5032716;28;20254;-83
2022/05/28 04:49:10;;;;;;;8.05;2.60;;;;;;;19.14;67.34;94386.44;5032228;28;20211;-86
2022/05/28 04:51:37;;;;;;;8.73;3.03;;;;;;;19.26;67.00;94415.53;5034067;28;20251;-86
2022/05/28 04:54:04;;;;;;;7.75;3.33;;;;;;;19.21;67.28;94417.84;5022293;28;20292;-84
2022/05/28 04:56:32;;;;;;;7.93;3.00;;;;;;;19.07;65.24;94424.88;5031905;28;20235;-83
2022/05/28 04:58:59;;;;;;;6.53;3.50;;;;;;;18.69;69.53;94430.97;5033495;28;20572;-83
2022/05/28 05:01:26;;;;;;;10.32;2.72;;;;;;;18.46;71.68;94422.94;5033190;28;20223;-86
2022/05/28 05:03:53;;;;;;;6.78;3.13;;;;;;;18.29;71.78;94421.69;5030830;28;20193;-85
2022/05/28 05:06:21;;;;;;;8.07;3.47;;;;;;;18.29;72.96;94446.38;5026012;28;20197;-84
2022/05/28 05:08:48;;;;;;;9.70;3.55;;;;;;;18.10;73.49;94457.56;5025188;28;20217;-79
2022/05/28 05:11:15;;;;;;;9.02;3.72;;;;;;;17.70;76.05;94486.56;5024982;28;20201;-81
2022/05/28 05:13:43;;;;;;;6.18;3.28;;;;;;;17.56;76.75;94475.44;5025410;28;20218;-78
2022/05/28 05:16:10;;;;;;;7.50;4.18;;;;;;;17.42;79.26;94456.91;5019696;28;20204;-76
2022/05/28 05:18:37;;;;;;;9.40;4.45;;;;;;;17.33;79.28;94447.41;5029485;28;20201;-80
2022/05/28 05:21:06;;;;;;;7.85;3.53;;;;;;;17.34;78.87;94451.72;5021181;28;20217;-82
2022/05/28 05:23:34;;;;;;;6.63;4.13;;;;;;;17.50;81.11;94454.22;5029629;28;20232;-81
2022/05/28 05:26:01;;;;;;;11.55;4.20;;;;;;;17.65;80.89;94448.56;5031933;28;20219;-83
2022/05/28 05:28:28;;;;;;;7.65;4.55;;;;;;;17.58;80.42;94456.69;5030293;28;20227;-84
2022/05/28 05:30:58;;;;;;;10.40;3.97;;;;;;;17.60;79.18;94465.31;5021847;28;20317;-84
2022/05/28 05:33:25;;;;;;;11.57;4.53;;;;;;;17.74;78.80;94465.50;5018983;28;20263;-85
2022/05/28 05:35:52;;;;;;;10.82;4.63;;;;;;;17.94;80.27;94457.81;5023809;28;20638;-85
2022/05/28 05:38:19;;;;;;;13.52;5.22;;;;;;;17.94;79.76;94457.03;5028981;28;20204;-81
2022/05/28 05:40:50;;;;;;;13.13;5.13;;;;;;;18.01;79.44;94455.16;5032177;28;20207;-84
2022/05/28 05:43:17;;;;;;;9.02;4.47;;;;;;;18.18;78.39;94456.44;5018904;28;20224;-83
2022/05/28 05:45:52;;;;;;;12.13;4.45;;;;;;;18.76;77.20;94458.44;5023215;28;20241;-84
2022/05/28 05:48:19;;;;;;;7.57;4.00;;;;;;;19.95;72.93;94455.75;5032037;28;20355;-85
2022/05/28 05:50:45;;;;;;;13.70;5.38;;;;;;;20.94;69.00;94444.66;5031790;28;20708;-82
2022/05/28 05:53:13;;;;;;;9.70;4.35;;;;;;;22.27;63.80;94438.09;5031207;28;20200;-80
2022/05/28 05:55:40;;;;;;;9.77;4.95;;;;;;;23.91;62.77;94428.78;5031445;28;20381;-83
2022/05/28 05:58:08;;;;;;;10.20;5.10;;;;;;;25.40;55.47;94415.88;5018805;28;20200;-82
2022/05/28 06:00:36;;;;;;;9.30;4.40;;;;;;;25.81;55.12;94411.88;5033760;28;20238;-83
2022/05/28 06:03:03;;;;;;;11.73;5.75;;;;;;;27.28;53.57;94410.56;5031957;28;20224;-82
2022/05/28 06:05:30;;;;;;;9.70;5.85;;;;;;;26.82;50.00;94412.56;5031099;28;20204;-79
2022/05/28 06:07:57;;;;;;;8.93;5.75;;;;;;;25.83;53.80;94417.78;5030621;28;20667;-85
2022/05/28 06:10:24;;;;;;;12.40;7.03;;;;;;;26.70;51.79;94410.50;5030488;28;20216;-83
2022/05/28 06:12:51;;;;;;;12.27;5.95;;;;;;;27.25;50.54;94405.88;5017382;28;20207;-81
2022/05/28 06:15:20;;;;;;;9.43;5.93;;;;;;;27.20;49.33;94409.19;5017065;28;20201;-81
2022/05/28 06:17:56;;;;;;;8.52;5.95;;;;;;;26.60;50.72;94399.69;5029600;28;20575;-82
2022/05/28 06:20:23;;;;;;;11.40;5.68;;;;;;;26.81;49.11;94388.00;5029824;28;20200;-83
2022/05/28 06:22:50;;;;;;;12.25;5.25;;;;;;;28.06;48.69;94385.97;5020715;28;20240;-81
2022/05/28 06:25:17;;;;;;;11.50;5.47;;;;;;;28.47;45.78;94393.44;5018527;28;20233;-83
2022/05/28 06:27:46;;;;;;;13.30;6.55;;;;;;;28.36;46.94;94386.66;5022597;28;20562;-83
2022/05/28 06:30:14;;;;;;;9.40;5.93;;;;;;;28.40;46.76;94393.69;5014484;28;20258;-86
2022/05/28 06:32:42;;;;;;;12.02;6.20;;;;;;;28.32;47.98;94386.00;5020980;28;20205;-84
2022/05/28 06:35:10;;;;;;;7.80;5.63;;;;;;;28.48;47.33;94377.50;5027446;28;20224;-81
2022/05/28 06:37:37;;;;;;;9.43;5.40;;;;;;;29.10;47.32;94372.19;5030548;28;20200;-79
2022/05/28 06:40:06;;;;;;;9.82;5.43;;;;;;;29.55;45.57;94372.53;5020442;28;20193;-75
2022/05/28 06:42:33;;;;;;;10.00;5.47;;;;;;;29.92;45.19;94361.56;5026934;28;20235;-79
2022/05/28 06:45:00;;;;;;;13.05;4.97;;;;;;;28.96;46.76;94357.53;5029950;28;20203;-79
2022/05/28 06:47:27;;;;;;;12.13;5.20;;;;;;;29.59;45.51;94350.84;5030863;28;20239;-79
2022/05/28 06:52:40;;;;;;;8.45;5.03;;;;;;;29.13;45.52;94333.00;5028167;28;20200;-80
2022/05/28 06:55:08;;;;;;;7.20;5.25;;;;;;;28.57;44.72;94336.53;5027790;28;20548;-81
2022/05/28 06:57:34;;;;;;;7.97;5.03;;;;;;;28.34;45.76;94336.94;5021254;28;20219;-81
2022/05/28 07:00:01;;;;;;;7.18;4.90;;;;;;;27.97;46.53;94321.84;5029640;28;20654;-87
2022/05/28 07:02:28;;;;;;;9.80;4.88;;;;;;;27.18;48.61;94322.66;5019859;28;20229;-86
2022/05/28 07:04:57;;;;;;;8.07;4.35;;;;;;;27.55;45.24;94319.13;5021141;28;20196;-76
2022/05/28 07:07:23;;;;;;;8.80;4.55;;;;;;;28.26;45.19;94313.34;5028396;28;20204;-86
2022/05/28 07:09:51;;;;;;;8.75;4.15;;;;;;;27.15;45.64;94326.31;5020698;28;20204;-81
2022/05/28 07:12:18;;;;;;;10.07;4.20;;;;;;;28.10;44.36;94313.47;5022440;28;20287;-78
2022/05/28 07:14:44;;;;;;;5.78;3.22;;;;;;;27.19;46.03;94310.31;5033010;28;20195;-88
2022/05/28 07:17:11;;;;;;;8.18;3.90;;;;;;;27.94;44.27;94311.56;5023595;28;20217;-83
2022/05/28 07:19:38;;;;;;;7.35;3.45;;;;;;;27.21;45.71;94299.50;5035292;28;20223;-79
2022/05/28 07:22:06;;;;;;;6.40;3.60;;;;;;;26.24;47.60;94311.66;5032316;28;20258;-81
2022/05/28 07:24:34;;;;;;;6.22;3.28;;;;;;;27.07;46.68;94299.91;5024297;28;20228;-84
2022/05/28 07:27:00;;;;;;;8.77;4.30;;;;;;;27.11;46.49;94312.50;5020955;28;20215;-79
2022/05/28 07:29:27;;;;;;;7.57;3.83;;;;;;;27.31;45.85;94297.63;5025222;28;20197;-83
2022/05/28 07:31:54;;;;;;;8.70;4.07;;;;;;;27.73;44.83;94307.47;5030905;28;20211;-79
2022/05/28 07:34:21;;;;;;;9.18;3.88;;;;;;;28.95;42.53;94291.03;5033930;28;20231;-80
2022/05/28 07:36:49;;;;;;;7.40;3.40;;;;;;;28.43;41.98;94300.03;5021334;28;20208;-80
2022/05/28 07:39:17;;;;;;;8.85;3.90;;;;;;;27.82;42.94;94293.66;5026636;28;20294;-82
2022/05/28 07:41:44;;;;;;;8.07;3.65;;;;;;;27.25;45.55;94295.41;5028155;28;20717;-84
2022/05/28 07:44:11;;;;;;;10.18;3.88;;;;;;;27.62;45.07;94295.09;5037159;28;20315;-82
2022/05/28 07:46:38;;;;;;;7.65;4.03;;;;;;;27.96;45.39;94292.41;5024068;28;21072;-79
2022/05/28 07:49:06;;;;;;;7.65;4.53;;;;;;;28.44;44.39;94287.63;5032936;28;20211;-83
2022/05/28 07:51:33;;;;;;;10.13;4.40;;;;;;;27.99;45.05;94297.09;5033061;28;20232;-79
2022/05/28 07:54:00;;;;;;;7.05;3.85;;;;;;;28.14;44.38;94297.41;5032326;28;20605;-78
2022/05/28 07:56:28;;;;;;;10.95;4.13;;;;;;;27.73;44.04;94292.78;5030615;28;20227;-79
2022/05/28 07:58:57;;;;;;;7.13;4.15;;;;;;;27.36;43.94;94294.28;5026523;28;20212;-83
2022/05/28 08:01:27;;;;;;;10.90;4.40;;;;;;;27.90;44.03;94277.50;5029146;28;20247;-82
2022/05/28 08:03:59;;;;;;;7.38;4.20;;;;;;;28.83;41.81;94269.56;5028516;28;20224;-83
2022/05/28 08:06:26;;;;;;;11.48;4.25;;;;;;;28.19;44.60;94272.56;5029753;28;20185;-82
2022/05/28 08:08:54;;;;;;;11.27;3.78;;;;;;;29.00;43.25;94268.91;5021065;28;20197;-84
2022/05/28 08:11:22;;;;;;;9.45;3.97;;;;;;;28.91;43.75;94270.88;5030453;28;20216;-86
2022/05/28 08:13:51;;;;;;;8.70;4.00;;;;;;;29.02;42.16;94264.88;5030621;28;20207;-83
2022/05/28 08:16:18;;;;;;;9.02;4.53;;;;;;;28.88;42.48;94266.19;5032699;28;20316;-81
2022/05/28 08:18:45;;;;;;;8.48;4.35;;;;;;;30.16;41.13;94266.81;5023877;28;20200;-86
2022/05/28 08:23:57;;;;;;;8.75;4.18;;;;;;;29.73;40.11;94267.75;5022222;28;20224;-84
2022/05/28 08:26:26;;;;;;;6.55;3.50;;;;;;;29.59;40.05;94272.66;5025842;28;20307;-86
2022/05/28 08:28:55;;;;;;;10.00;4.45;;;;;;;29.95;40.30;94271.22;5027945;28;20275;-86
2022/05/28 08:31:23;;;;;;;6.93;3.95;;;;;;;29.63;41.05;94270.50;5027225;28;20200;-81
2022/05/28 08:33:50;;;;;;;12.43;4.15;;;;;;;28.94;40.92;94276.31;5030114;28;20232;-81
2022/05/28 08:36:17;;;;;;;10.82;3.72;;;;;;;29.38;42.07;94270.72;5026429;28;20205;-82
2022/05/28 08:38:44;;;;;;;8.57;3.97;;;;;;;29.02;40.23;94262.09;5031730;28;20220;-79
2022/05/28 08:41:13;;;;;;;9.55;4.00;;;;;;;29.07;41.22;94272.66;5034515;28;20200;-88
2022/05/28 08:43:47;;;;;;;9.13;4.03;;;;;;;28.64;42.37;94269.41;5028297;28;20224;-85
2022/05/28 08:46:18;;;;;;;8.30;3.58;;;;;;;29.63;40.22;94258.56;5032248;28;20254;-81
2022/05/28 08:48:53;;;;;;;13.85;4.22;;;;;;;29.88;39.35;94269.50;5027427;28;20190;-88
2022/05/28 08:51:27;;;;;;;9.35;3.88;;;;;;;29.86;38.47;94255.22;5027104;28;20216;-81
2022/05/28 08:54:01;;;;;;;11.30;3.80;;;;;;;29.76;39.35;94266.84;5029094;28;20211;-83
2022/05/28 08:56:29;;;;;;;9.43;3.95;;;;;;;29.64;40.44;94263.69;5028102;28;20702;-81
2022/05/28 08:59:04;;;;;;;11.43;3.78;;;;;;;29.94;39.20;94255.69;5032069;28;20240;-86
2022/05/28 09:01:36;;;;;;;9.27;3.58;;;;;;;29.64;39.16;94252.53;5034759;28;20600;-84
2022/05/28 09:04:06;;;;;;;9.85;4.32;;;;;;;28.65;40.81;94259.03;5035910;28;20224;-82
2022/05/28 09:06:38;;;;;;;10.88;4.50;;;;;;;27.98;42.33;94256.56;5035025;28;20203;-83
2022/05/28 09:09:09;;;;;;;9.50;4.38;;;;;;;28.48;43.45;94254.84;5036342;28;20188;-88
2022/05/28 09:11:39;;;;;;;10.73;4.38;;;;;;;28.54;42.00;94244.69;5036249;28;20280;-81
2022/05/28 09:14:19;;;;;;;7.15;4.25;;;;;;;29.36;42.05;94256.41;5031929;28;20581;-82
2022/05/28 09:16:50;;;;;;;14.07;4.47;;;;;;;30.12;39.17;94250.19;5026054;28;20207;-88
2022/05/28 09:19:20;;;;;;;9.93;3.60;;;;;;;30.01;39.76;94244.28;5027117;28;20217;-83
2022/05/28 09:21:49;;;;;;;11.88;4.72;;;;;;;29.87;40.15;94233.66;5026021;28;20587;-82
2022/05/28 09:24:19;;;;;;;9.80;4.22;;;;;;;29.19;40.49;94241.91;5012181;28;20233;-81
2022/05/28 09:26:57;;;;;;;8.40;4.18;;;;;;;29.11;41.44;94229.44;5024828;28;20208;-84
2022/05/28 09:29:48;;;;;;;8.00;4.75;;;;;;;29.09;40.92;94225.56;5020863;28;20257;-84
2022/05/28 09:32:21;;;;;;;10.73;4.35;;;;;;;29.95;40.84;94223.72;5018091;28;20193;-87
2022/05/28 09:35:02;;;;;;;7.28;4.72;;;;;;;30.84;39.34;94206.72;5018717;28;20201;-83
2022/05/28 09:37:42;;;;;;;11.32;4.45;;;;;;;30.65;38.58;94207.97;5025454;28;20200;-81
2022/05/28 09:40:14;;;;;;;9.23;4.38;;;;;;;30.35;38.87;94206.88;5028734;28;20228;-78
2022/05/28 09:42:59;;;;;;;9.95;4.75;;;;;;;31.40;38.40;94205.34;5031383;28;20204;-82
2022/05/28 09:45:33;;;;;;;8.55;4.57;;;;;;;30.96;38.76;94200.16;5011340;28;20566;-83
2022/05/28 09:48:01;;;;;;;8.20;4.20;;;;;;;31.92;37.60;94194.84;5027782;28;20203;-84
2022/05/28 09:50:30;;;;;;;12.43;5.28;;;;;;;31.53;38.23;94191.91;5022489;28;20228;-83
2022/05/28 09:55:57;;;;;;;9.38;5.07;;;;;;;31.00;38.53;94184.00;5028608;28;20200;-83
2022/05/28 09:58:28;;;;;;;13.88;4.80;;;;;;;31.00;38.88;94184.00;5019554;28;20259;-82
2022/05/28 10:01:09;;;;;;;13.70;4.50;;;;;;;31.10;39.28;94181.97;5027799;28;20207;-84
2022/05/28 10:06:26;;;;;;;10.45;5.47;;;;;;;29.53;40.95;94193.53;5018738;28;20274;-80
2022/05/28 10:08:53;;;;;;;11.88;5.47;;;;;;;30.29;39.93;94172.41;5030868;28;20208;-83
2022/05/28 10:11:22;;;;;;;11.60;5.68;;;;;;;30.77;39.38;94172.69;5018718;28;20255;-86
2022/05/28 10:13:52;;;;;;;12.95;5.20;;;;;;;30.27;40.06;94172.88;5017256;28;20236;-82
2022/05/28 10:16:21;;;;;;;12.07;5.10;;;;;;;29.40;42.38;94181.69;5023114;28;20224;-81
2022/05/28 10:18:55;;;;;;;9.20;4.95;;;;;;;29.52;41.71;94180.06;5024952;28;20221;-86
2022/05/28 10:21:29;;;;;;;11.82;5.65;;;;;;;29.86;41.88;94170.66;5020508;28;20220;-79
2022/05/28 10:24:01;;;;;;;10.93;5.40;;;;;;;28.90;42.88;94171.69;5027468;28;20683;-80
2022/05/28 10:26:31;;;;;;;12.13;6.15;;;;;;;28.46;44.52;94173.72;5011238;28;20203;-78
2022/05/28 10:29:01;;;;;;;13.25;5.60;;;;;;;28.79;43.31;94157.38;5016346;28;20227;-80
2022/05/28 10:31:31;;;;;;;10.18;4.75;;;;;;;29.38;42.43;94164.66;5028420;28;20200;-81
2022/05/28 10:34:01;;;;;;;16.83;5.63;;;;;;;29.67;41.88;94165.00;5031314;28;20235;-81
2022/05/28 10:36:30;;;;;;;10.70;5.60;;;;;;;29.96;41.48;94158.22;5019159;28;20400;-82
2022/05/28 10:39:09;;;;;;;12.38;5.45;;;;;;;29.91;41.37;94147.69;5022771;28;20559;-80
2022/05/28 10:41:36;;;;;;;9.70;5.40;;;;;;;29.30;42.33;94154.97;5027559;28;20216;-79
2022/05/28 10:44:04;;;;;;;17.15;5.10;;;;;;;29.42;43.51;94156.13;5040717;28;20231;-86
2022/05/28 10:46:46;;;;;;;10.93;5.43;;;;;;;28.99;43.57;94146.63;5037967;28;20234;-82
2022/05/28 10:49:29;;;;;;;10.60;5.15;;;;;;;29.73;42.88;94151.22;5029859;28;20227;-84
2022/05/28 10:52:09;;;;;;;9.73;4.93;;;;;;;30.21;41.36;94146.00;5032204;28;20756;-78
2022/05/28 10:54:52;;;;;;;12.90;5.22;;;;;;;30.02;41.19;94136.88;5032498;28;20223;-85
2022/05/28 10:57:48;;;;;;;11.60;5.07;;;;;;;30.03;41.46;94135.63;5034811;28;20231;-84
2022/05/28 11:00:17;;;;;;;11.30;5.50;;;;;;;29.95;41.49;94145.50;5022952;28;20219;-77
2022/05/28 11:03:22;;;;;;;13.23;5.45;;;;;;;29.87;41.21;94149.84;5031709;28;21535;-79
2022/05/28 11:06:22;;;;;;;8.93;5.35;;;;;;;30.45;40.33;94137.78;5029536;28;20196;-81
2022/05/28 11:09:01;;;;;;;8.55;4.90;;;;;;;30.19;40.69;94135.31;5033837;28;20208;-88
2022/05/28 11:11:46;;;;;;;9.88;4.97;;;;;;;29.86;40.93;94132.31;5022756;28;20232;-80
2022/05/28 11:14:37;;;;;;;13.30;5.07;;;;;;;29.60;42.10;94131.81;5030305;28;20667;-87
2022/05/28 11:17:20;;;;;;;9.45;5.03;;;;;;;28.71;41.84;94133.75;5033873;28;20235;-76
2022/05/28 11:20:01;;;;;;;11.18;5.18;;;;;;;28.36;43.02;94125.50;5014785;28;20212;-78
2022/05/28 11:22:52;;;;;;;9.32;4.82;;;;;;;28.56;41.91;94133.53;5031849;28;20196;-83
2022/05/28 11:25:26;;;;;;;15.80;4.80;;;;;;;28.56;41.55;94122.38;5020920;28;20220;-78
2022/05/28 11:28:04;;;;;;;9.93;4.75;;;;;;;28.38;42.21;94111.13;5024066;28;20243;-78
2022/05/28 11:30:36;;;;;;;9.55;4.43;;;;;;;27.98;42.12;94111.75;5031178;28;20270;-80
2022/05/28 11:33:09;;;;;;;7.72;4.50;;;;;;;28.01;42.90;94104.50;5033794;28;20228;-82
2022/05/28 11:35:40;;;;;;;7.75;4.80;;;;;;;28.39;42.51;94107.09;5028264;28;20224;-83
2022/05/28 11:38:17;;;;;;;6.38;4.22;;;;;;;28.78;41.94;94100.81;5027430;28;20189;-81
2022/05/28 11:40:52;;;;;;;11.13;4.68;;;;;;;28.92;42.92;94094.69;5022889;28;20227;-80
2022/05/28 11:43:25;;;;;;;9.60;4.78;;;;;;;29.08;41.17;94092.91;5036896;28;20190;-83
2022/05/28 11:45:57;;;;;;;10.32;4.75;;;;;;;29.27;40.45;94100.06;5053407;28;20234;-83
2022/05/28 11:51:27;;;;;;;8.35;4.93;;;;;;;29.54;40.12;94094.56;5034609;28;20227;-84
2022/05/28 11:51:29;;;;;;;9.57;4.50;;;;;;;29.29;40.10;94089.22;5030553;28;20636;-78
2022/05/28 11:54:03;;;;;;;9.45;4.68;;;;;;;29.14;39.52;94096.63;5023834;28;20208;-79
2022/05/28 11:56:31;;;;;;;10.10;4.47;;;;;;;28.97;39.84;94091.28;5033617;28;20318;-81